Aireys Inlet, Victoria

4:17 PM EST on August 20, 2014 (GMT +1000)
Aireys Inlet Victoria Australia | Change Station
CLOSE
Current Station
Personal Weather Station
Location: Aireys Inlet, VICTORIA
Elevation: 121 ft
Nearby Weather Stations

Elev 121 ft 38.46 °S, 144.11 °E | Updated 8 seconds ago

Overcast
Overcast
52.3 °F
Feels Like 52.3 °F
N
5.1
Wind Variable Wind from SSW
Gusts 7.4 mph

Today
High -- | Low -- °F
--% Chance of Precip.
Yesterday
High -- | Low -- °F
Precip. -- in
7:03 AM 5:51 PM
Waning Crescent, 24% visible
Pressure 30.30 in
Visibility 6.2 miles
Clouds Overcast 4100 ft
Dew Point 36 °F
Humidity 53%
Rainfall 0.00 in
Snow Depth Not available.
UV 1.0 out of 12
Pollen Not available.
Air Quality Not available.
Flu Activity Not available.
METAR YMAV 200600Z AUTO 18009KT 9999 // OVC041 12/06 Q1026

More Conditions Fewer Conditions

Pressure 30.30 in
Visibility 6.2 miles
Clouds Overcast 4100 ft
Dew Point 36 °F
Humidity 53%
Rainfall 0.00 in
Snow Depth Not available.
UV 1.0 out of 12
Pollen Not available.
Air Quality Not available.
Flu Activity Not available.
METAR YMAV 200600Z AUTO 18009KT 9999 // OVC041 12/06 Q1026

More Conditions Fewer Conditions

10-Day Weather Forecast

Almanac

Astronomy

Aug. 20, 2014 Rise Set
Actual Time 7:03 AM EST 5:51 PM EST
Civil Twilight 6:36 AM EST 6:18 PM EST
Nautical Twilight 6:05 AM EST 6:49 PM EST
Astronomical Twilight 5:34 AM EST 7:20 PM EST
Moon 3:01 AM EST 1:15 PM EST
Length of Visible Light 11h 41m
Length of Day
10h 47m
Tomorrow will be 2m 13s longer.
Waning Crescent, 24% of the Moon is Illuminated
Today
Waning Crescent
Aug 25
New
Sep 2
First Quarter
Sep 8
Full
Sep 15
Last Quarter

Yesterday's Extremes

Country Highs Country Lows

Community

WunderPhotos

Upload Photos

1,745,592 photos uploaded!

Nearby

Snow Depth

Not available.

Earthquake Activity

City Distance Mag. Time & Date
No recent earthquake activity has been reported nearby.
Minimum magnitude displayed is 2.5.

Coastal Water Temperatures

Place Temperature
No Stations Reporting

Nearby Weather Stations